sensor_id;sensor_type;location;lat;lon;timestamp;P1;durP1;ratioP1;P2;durP2;ratioP2
3341;SDS011;1684;50.748;6.154;2023-09-19T00:01:03;7.70;;;2.30;;
3341;SDS011;1684;50.748;6.154;2023-09-19T00:03:35;4.53;;;1.97;;
3341;SDS011;1684;50.748;6.154;2023-09-19T00:06:05;9.40;;;2.50;;
3341;SDS011;1684;50.748;6.154;2023-09-19T00:08:34;11.07;;;4.33;;
3341;SDS011;1684;50.748;6.154;2023-09-19T00:11:02;7.00;;;2.73;;
3341;SDS011;1684;50.748;6.154;2023-09-19T00:13:32;6.93;;;2.70;;
3341;SDS011;1684;50.748;6.154;2023-09-19T00:16:07;10.30;;;2.67;;
3341;SDS011;1684;50.748;6.154;2023-09-19T00:18:38;5.90;;;2.60;;
3341;SDS011;1684;50.748;6.154;2023-09-19T00:21:06;8.43;;;2.67;;
3341;SDS011;1684;50.748;6.154;2023-09-19T00:23:36;9.47;;;2.30;;
3341;SDS011;1684;50.748;6.154;2023-09-19T00:26:05;11.93;;;4.03;;
3341;SDS011;1684;50.748;6.154;2023-09-19T00:28:33;7.57;;;2.03;;
3341;SDS011;1684;50.748;6.154;2023-09-19T00:31:01;4.83;;;2.33;;
3341;SDS011;1684;50.748;6.154;2023-09-19T00:33:31;6.20;;;3.07;;
3341;SDS011;1684;50.748;6.154;2023-09-19T00:36:04;6.53;;;2.20;;
3341;SDS011;1684;50.748;6.154;2023-09-19T00:38:32;6.80;;;2.30;;
3341;SDS011;1684;50.748;6.154;2023-09-19T00:41:00;6.43;;;2.00;;
3341;SDS011;1684;50.748;6.154;2023-09-19T00:43:29;8.70;;;2.83;;
3341;SDS011;1684;50.748;6.154;2023-09-19T00:46:01;11.13;;;2.73;;
3341;SDS011;1684;50.748;6.154;2023-09-19T00:48:30;7.60;;;2.80;;
3341;SDS011;1684;50.748;6.154;2023-09-19T00:51:03;7.90;;;2.53;;
3341;SDS011;1684;50.748;6.154;2023-09-19T00:53:33;8.13;;;2.50;;
3341;SDS011;1684;50.748;6.154;2023-09-19T00:56:02;7.13;;;2.10;;
3341;SDS011;1684;50.748;6.154;2023-09-19T00:58:31;4.77;;;2.07;;
3341;SDS011;1684;50.748;6.154;2023-09-19T01:01:01;9.13;;;2.40;;
3341;SDS011;1684;50.748;6.154;2023-09-19T01:03:33;8.63;;;2.13;;
3341;SDS011;1684;50.748;6.154;2023-09-19T01:06:03;6.33;;;2.27;;
3341;SDS011;1684;50.748;6.154;2023-09-19T01:08:33;10.03;;;3.97;;
3341;SDS011;1684;50.748;6.154;2023-09-19T01:11:05;11.23;;;2.40;;
3341;SDS011;1684;50.748;6.154;2023-09-19T01:13:40;7.50;;;2.90;;
3341;SDS011;1684;50.748;6.154;2023-09-19T01:16:15;6.73;;;2.30;;
3341;SDS011;1684;50.748;6.154;2023-09-19T01:18:49;10.93;;;2.37;;
3341;SDS011;1684;50.748;6.154;2023-09-19T01:21:26;8.17;;;2.43;;
3341;SDS011;1684;50.748;6.154;2023-09-19T01:27:04;11.97;;;2.43;;
3341;SDS011;1684;50.748;6.154;2023-09-19T01:29:36;5.77;;;2.23;;
3341;SDS011;1684;50.748;6.154;2023-09-19T01:32:08;4.13;;;1.70;;
3341;SDS011;1684;50.748;6.154;2023-09-19T01:34:43;5.97;;;2.00;;
3341;SDS011;1684;50.748;6.154;2023-09-19T01:37:13;5.60;;;2.53;;
3341;SDS011;1684;50.748;6.154;2023-09-19T01:39:46;9.00;;;2.17;;
3341;SDS011;1684;50.748;6.154;2023-09-19T01:42:18;8.43;;;2.00;;
3341;SDS011;1684;50.748;6.154;2023-09-19T01:44:51;7.30;;;2.77;;
3341;SDS011;1684;50.748;6.154;2023-09-19T01:47:26;8.03;;;2.77;;
3341;SDS011;1684;50.748;6.154;2023-09-19T01:49:59;5.90;;;2.37;;
3341;SDS011;1684;50.748;6.154;2023-09-19T01:52:31;4.80;;;2.60;;
3341;SDS011;1684;50.748;6.154;2023-09-19T01:55:05;10.30;;;2.23;;
3341;SDS011;1684;50.748;6.154;2023-09-19T01:57:35;5.67;;;2.73;;
3341;SDS011;1684;50.748;6.154;2023-09-19T02:00:07;13.27;;;2.30;;
3341;SDS011;1684;50.748;6.154;2023-09-19T02:02:40;8.80;;;2.50;;
3341;SDS011;1684;50.748;6.154;2023-09-19T02:05:08;14.23;;;2.80;;
3341;SDS011;1684;50.748;6.154;2023-09-19T02:07:38;9.13;;;2.53;;
3341;SDS011;1684;50.748;6.154;2023-09-19T02:10:08;10.93;;;2.70;;
3341;SDS011;1684;50.748;6.154;2023-09-19T02:12:38;12.17;;;2.60;;
3341;SDS011;1684;50.748;6.154;2023-09-19T02:15:07;7.80;;;3.63;;
3341;SDS011;1684;50.748;6.154;2023-09-19T02:17:35;6.67;;;2.60;;
3341;SDS011;1684;50.748;6.154;2023-09-19T02:20:09;6.03;;;2.30;;
3341;SDS011;1684;50.748;6.154;2023-09-19T02:22:41;6.43;;;2.37;;
3341;SDS011;1684;50.748;6.154;2023-09-19T02:25:10;7.80;;;2.50;;
3341;SDS011;1684;50.748;6.154;2023-09-19T02:27:40;8.47;;;2.37;;
3341;SDS011;1684;50.748;6.154;2023-09-19T02:30:09;11.50;;;2.80;;
3341;SDS011;1684;50.748;6.154;2023-09-19T02:32:37;9.00;;;2.53;;
3341;SDS011;1684;50.748;6.154;2023-09-19T02:35:08;8.90;;;2.30;;
3341;SDS011;1684;50.748;6.154;2023-09-19T02:37:37;7.60;;;3.60;;
3341;SDS011;1684;50.748;6.154;2023-09-19T02:40:06;9.73;;;3.07;;
3341;SDS011;1684;50.748;6.154;2023-09-19T02:42:45;8.20;;;2.43;;
3341;SDS011;1684;50.748;6.154;2023-09-19T02:45:22;11.40;;;4.37;;
3341;SDS011;1684;50.748;6.154;2023-09-19T02:47:50;12.43;;;3.17;;
3341;SDS011;1684;50.748;6.154;2023-09-19T02:50:20;12.17;;;2.90;;
3341;SDS011;1684;50.748;6.154;2023-09-19T02:52:49;9.00;;;2.70;;
3341;SDS011;1684;50.748;6.154;2023-09-19T02:55:18;5.27;;;2.40;;
3341;SDS011;1684;50.748;6.154;2023-09-19T02:57:48;8.33;;;2.83;;
3341;SDS011;1684;50.748;6.154;2023-09-19T03:00:17;9.77;;;2.60;;
3341;SDS011;1684;50.748;6.154;2023-09-19T03:02:48;6.97;;;2.37;;
3341;SDS011;1684;50.748;6.154;2023-09-19T03:05:17;10.13;;;3.40;;
3341;SDS011;1684;50.748;6.154;2023-09-19T03:07:47;10.97;;;2.93;;
3341;SDS011;1684;50.748;6.154;2023-09-19T03:10:17;10.17;;;2.70;;
3341;SDS011;1684;50.748;6.154;2023-09-19T03:12:45;13.80;;;4.03;;
3341;SDS011;1684;50.748;6.154;2023-09-19T03:15:14;10.10;;;3.20;;
3341;SDS011;1684;50.748;6.154;2023-09-19T03:17:44;6.70;;;2.30;;
3341;SDS011;1684;50.748;6.154;2023-09-19T03:20:14;4.80;;;2.60;;
3341;SDS011;1684;50.748;6.154;2023-09-19T03:22:44;7.43;;;2.40;;
3341;SDS011;1684;50.748;6.154;2023-09-19T03:25:13;9.73;;;3.10;;
3341;SDS011;1684;50.748;6.154;2023-09-19T03:27:44;9.63;;;2.50;;
3341;SDS011;1684;50.748;6.154;2023-09-19T03:30:12;12.90;;;2.60;;
3341;SDS011;1684;50.748;6.154;2023-09-19T03:32:43;11.37;;;3.07;;
3341;SDS011;1684;50.748;6.154;2023-09-19T03:35:13;8.13;;;2.43;;
3341;SDS011;1684;50.748;6.154;2023-09-19T03:37:41;8.63;;;2.90;;
3341;SDS011;1684;50.748;6.154;2023-09-19T03:40:10;12.53;;;2.73;;
3341;SDS011;1684;50.748;6.154;2023-09-19T03:42:40;13.53;;;2.37;;
3341;SDS011;1684;50.748;6.154;2023-09-19T03:45:09;8.60;;;3.00;;
3341;SDS011;1684;50.748;6.154;2023-09-19T03:47:39;11.97;;;2.67;;
3341;SDS011;1684;50.748;6.154;2023-09-19T03:50:08;10.43;;;2.70;;
3341;SDS011;1684;50.748;6.154;2023-09-19T03:52:37;11.00;;;2.67;;
3341;SDS011;1684;50.748;6.154;2023-09-19T03:55:06;12.50;;;3.70;;
3341;SDS011;1684;50.748;6.154;2023-09-19T03:57:36;8.77;;;3.50;;
3341;SDS011;1684;50.748;6.154;2023-09-19T04:00:09;8.07;;;3.00;;
3341;SDS011;1684;50.748;6.154;2023-09-19T04:02:41;5.87;;;2.40;;
3341;SDS011;1684;50.748;6.154;2023-09-19T04:05:09;6.17;;;2.57;;
3341;SDS011;1684;50.748;6.154;2023-09-19T04:07:37;8.60;;;2.63;;
3341;SDS011;1684;50.748;6.154;2023-09-19T04:10:06;11.33;;;2.97;;
3341;SDS011;1684;50.748;6.154;2023-09-19T04:12:38;5.97;;;2.67;;
3341;SDS011;1684;50.748;6.154;2023-09-19T04:15:06;7.03;;;3.47;;
3341;SDS011;1684;50.748;6.154;2023-09-19T04:17:40;14.63;;;3.27;;
3341;SDS011;1684;50.748;6.154;2023-09-19T04:20:09;11.03;;;3.10;;
3341;SDS011;1684;50.748;6.154;2023-09-19T04:22:38;8.37;;;2.50;;
3341;SDS011;1684;50.748;6.154;2023-09-19T04:25:07;11.93;;;2.73;;
3341;SDS011;1684;50.748;6.154;2023-09-19T04:27:36;10.93;;;2.90;;
3341;SDS011;1684;50.748;6.154;2023-09-19T04:30:05;9.53;;;3.20;;
3341;SDS011;1684;50.748;6.154;2023-09-19T04:32:36;14.13;;;3.83;;
3341;SDS011;1684;50.748;6.154;2023-09-19T04:35:08;9.50;;;2.73;;
3341;SDS011;1684;50.748;6.154;2023-09-19T04:37:39;9.50;;;2.73;;
3341;SDS011;1684;50.748;6.154;2023-09-19T04:40:09;12.90;;;3.20;;
3341;SDS011;1684;50.748;6.154;2023-09-19T04:42:39;7.03;;;3.43;;
3341;SDS011;1684;50.748;6.154;2023-09-19T04:45:08;7.30;;;2.80;;
3341;SDS011;1684;50.748;6.154;2023-09-19T04:47:37;7.10;;;2.30;;
3341;SDS011;1684;50.748;6.154;2023-09-19T04:50:08;9.60;;;3.43;;
3341;SDS011;1684;50.748;6.154;2023-09-19T04:52:40;9.50;;;2.53;;
3341;SDS011;1684;50.748;6.154;2023-09-19T04:55:11;14.30;;;2.97;;
3341;SDS011;1684;50.748;6.154;2023-09-19T04:57:43;14.17;;;3.90;;
3341;SDS011;1684;50.748;6.154;2023-09-19T05:00:23;11.57;;;3.03;;
3341;SDS011;1684;50.748;6.154;2023-09-19T05:02:54;10.03;;;3.30;;
3341;SDS011;1684;50.748;6.154;2023-09-19T05:05:25;11.00;;;2.90;;
3341;SDS011;1684;50.748;6.154;2023-09-19T05:07:55;11.43;;;3.33;;
3341;SDS011;1684;50.748;6.154;2023-09-19T05:10:23;9.20;;;2.80;;
3341;SDS011;1684;50.748;6.154;2023-09-19T05:12:52;8.20;;;2.47;;
3341;SDS011;1684;50.748;6.154;2023-09-19T05:15:21;6.03;;;2.60;;
3341;SDS011;1684;50.748;6.154;2023-09-19T05:17:49;9.03;;;2.90;;
3341;SDS011;1684;50.748;6.154;2023-09-19T05:20:25;13.00;;;3.17;;
3341;SDS011;1684;50.748;6.154;2023-09-19T05:22:59;16.83;;;3.60;;
3341;SDS011;1684;50.748;6.154;2023-09-19T05:25:30;9.20;;;2.90;;
3341;SDS011;1684;50.748;6.154;2023-09-19T05:27:59;10.40;;;3.43;;
3341;SDS011;1684;50.748;6.154;2023-09-19T05:30:29;7.70;;;2.80;;
3341;SDS011;1684;50.748;6.154;2023-09-19T05:32:58;10.83;;;2.77;;
3341;SDS011;1684;50.748;6.154;2023-09-19T05:35:28;8.00;;;2.43;;
3341;SDS011;1684;50.748;6.154;2023-09-19T05:37:57;10.77;;;3.40;;
3341;SDS011;1684;50.748;6.154;2023-09-19T05:40:25;12.47;;;2.97;;
3341;SDS011;1684;50.748;6.154;2023-09-19T05:42:54;11.93;;;2.77;;
3341;SDS011;1684;50.748;6.154;2023-09-19T05:45:23;9.90;;;3.47;;
3341;SDS011;1684;50.748;6.154;2023-09-19T05:47:52;12.43;;;3.80;;
3341;SDS011;1684;50.748;6.154;2023-09-19T05:50:22;8.47;;;2.40;;
3341;SDS011;1684;50.748;6.154;2023-09-19T05:52:53;12.70;;;3.87;;
3341;SDS011;1684;50.748;6.154;2023-09-19T05:55:22;11.47;;;3.10;;
3341;SDS011;1684;50.748;6.154;2023-09-19T05:57:52;6.90;;;2.80;;
3341;SDS011;1684;50.748;6.154;2023-09-19T06:00:21;9.20;;;2.70;;
3341;SDS011;1684;50.748;6.154;2023-09-19T06:02:50;9.80;;;2.70;;
3341;SDS011;1684;50.748;6.154;2023-09-19T06:05:19;9.17;;;3.10;;
3341;SDS011;1684;50.748;6.154;2023-09-19T06:07:48;12.37;;;2.90;;
3341;SDS011;1684;50.748;6.154;2023-09-19T06:10:18;9.60;;;2.60;;
3341;SDS011;1684;50.748;6.154;2023-09-19T06:12:49;13.50;;;3.27;;
3341;SDS011;1684;50.748;6.154;2023-09-19T06:15:18;10.63;;;3.00;;
3341;SDS011;1684;50.748;6.154;2023-09-19T06:17:47;16.23;;;3.90;;
3341;SDS011;1684;50.748;6.154;2023-09-19T06:20:16;16.30;;;3.50;;
3341;SDS011;1684;50.748;6.154;2023-09-19T06:22:46;13.43;;;3.97;;
3341;SDS011;1684;50.748;6.154;2023-09-19T06:25:15;11.93;;;3.30;;
3341;SDS011;1684;50.748;6.154;2023-09-19T06:27:48;11.87;;;3.37;;
3341;SDS011;1684;50.748;6.154;2023-09-19T06:30:19;8.50;;;2.93;;
3341;SDS011;1684;50.748;6.154;2023-09-19T06:32:47;9.60;;;4.90;;
3341;SDS011;1684;50.748;6.154;2023-09-19T06:35:16;12.00;;;3.57;;
3341;SDS011;1684;50.748;6.154;2023-09-19T06:37:44;9.10;;;5.07;;
3341;SDS011;1684;50.748;6.154;2023-09-19T06:40:14;14.40;;;4.23;;
3341;SDS011;1684;50.748;6.154;2023-09-19T06:42:43;10.20;;;3.47;;
3341;SDS011;1684;50.748;6.154;2023-09-19T06:45:14;7.77;;;3.70;;
3341;SDS011;1684;50.748;6.154;2023-09-19T06:47:45;11.17;;;3.40;;
3341;SDS011;1684;50.748;6.154;2023-09-19T06:50:16;7.90;;;3.20;;
3341;SDS011;1684;50.748;6.154;2023-09-19T06:52:46;13.80;;;3.43;;
3341;SDS011;1684;50.748;6.154;2023-09-19T06:55:17;10.97;;;2.97;;
3341;SDS011;1684;50.748;6.154;2023-09-19T06:57:46;8.90;;;3.37;;
3341;SDS011;1684;50.748;6.154;2023-09-19T07:00:16;10.77;;;2.93;;
3341;SDS011;1684;50.748;6.154;2023-09-19T07:02:54;11.67;;;3.90;;
3341;SDS011;1684;50.748;6.154;2023-09-19T07:05:22;8.20;;;2.70;;
3341;SDS011;1684;50.748;6.154;2023-09-19T07:07:51;10.90;;;3.70;;
3341;SDS011;1684;50.748;6.154;2023-09-19T07:10:19;12.63;;;3.67;;
3341;SDS011;1684;50.748;6.154;2023-09-19T07:12:54;11.93;;;3.43;;
3341;SDS011;1684;50.748;6.154;2023-09-19T07:15:24;10.93;;;3.97;;
3341;SDS011;1684;50.748;6.154;2023-09-19T07:17:52;8.93;;;3.30;;
3341;SDS011;1684;50.748;6.154;2023-09-19T07:20:23;10.73;;;3.20;;
3341;SDS011;1684;50.748;6.154;2023-09-19T07:22:53;8.90;;;3.10;;
3341;SDS011;1684;50.748;6.154;2023-09-19T07:25:22;10.50;;;3.90;;
3341;SDS011;1684;50.748;6.154;2023-09-19T07:27:50;12.27;;;4.80;;
3341;SDS011;1684;50.748;6.154;2023-09-19T07:30:19;7.80;;;2.60;;
3341;SDS011;1684;50.748;6.154;2023-09-19T07:32:49;7.50;;;2.70;;
3341;SDS011;1684;50.748;6.154;2023-09-19T07:35:17;12.03;;;3.40;;
3341;SDS011;1684;50.748;6.154;2023-09-19T07:37:46;7.90;;;3.43;;
3341;SDS011;1684;50.748;6.154;2023-09-19T07:40:17;8.23;;;2.93;;
3341;SDS011;1684;50.748;6.154;2023-09-19T07:42:46;9.53;;;3.30;;
3341;SDS011;1684;50.748;6.154;2023-09-19T07:45:15;18.00;;;4.43;;
3341;SDS011;1684;50.748;6.154;2023-09-19T07:47:44;13.93;;;3.37;;
3341;SDS011;1684;50.748;6.154;2023-09-19T07:50:17;12.77;;;3.30;;
3341;SDS011;1684;50.748;6.154;2023-09-19T07:52:46;14.47;;;3.70;;
3341;SDS011;1684;50.748;6.154;2023-09-19T07:55:14;8.40;;;3.00;;
3341;SDS011;1684;50.748;6.154;2023-09-19T07:57:43;7.20;;;2.80;;
3341;SDS011;1684;50.748;6.154;2023-09-19T08:00:13;11.83;;;3.33;;
3341;SDS011;1684;50.748;6.154;2023-09-19T08:02:41;11.30;;;3.30;;
3341;SDS011;1684;50.748;6.154;2023-09-19T08:05:12;8.47;;;2.93;;
3341;SDS011;1684;50.748;6.154;2023-09-19T08:07:44;8.30;;;3.27;;
3341;SDS011;1684;50.748;6.154;2023-09-19T08:10:15;9.30;;;3.63;;
3341;SDS011;1684;50.748;6.154;2023-09-19T08:12:46;7.27;;;2.37;;
3341;SDS011;1684;50.748;6.154;2023-09-19T08:15:15;12.73;;;3.60;;
3341;SDS011;1684;50.748;6.154;2023-09-19T08:17:43;9.63;;;3.03;;
3341;SDS011;1684;50.748;6.154;2023-09-19T08:20:12;10.23;;;2.70;;
3341;SDS011;1684;50.748;6.154;2023-09-19T08:22:46;9.73;;;3.20;;
3341;SDS011;1684;50.748;6.154;2023-09-19T08:25:15;11.97;;;3.63;;
3341;SDS011;1684;50.748;6.154;2023-09-19T08:27:45;6.70;;;3.20;;
3341;SDS011;1684;50.748;6.154;2023-09-19T08:30:14;5.20;;;2.30;;
3341;SDS011;1684;50.748;6.154;2023-09-19T08:32:44;8.33;;;2.53;;
3341;SDS011;1684;50.748;6.154;2023-09-19T08:35:12;10.00;;;2.03;;
3341;SDS011;1684;50.748;6.154;2023-09-19T08:37:41;9.10;;;2.70;;
3341;SDS011;1684;50.748;6.154;2023-09-19T08:40:13;7.70;;;2.87;;
3341;SDS011;1684;50.748;6.154;2023-09-19T08:42:48;8.03;;;3.27;;
3341;SDS011;1684;50.748;6.154;2023-09-19T08:45:17;16.03;;;4.43;;
3341;SDS011;1684;50.748;6.154;2023-09-19T08:47:46;8.03;;;2.30;;
3341;SDS011;1684;50.748;6.154;2023-09-19T08:50:18;5.97;;;2.47;;
3341;SDS011;1684;50.748;6.154;2023-09-19T08:52:47;10.20;;;2.73;;
3341;SDS011;1684;50.748;6.154;2023-09-19T08:55:22;12.13;;;2.90;;
3341;SDS011;1684;50.748;6.154;2023-09-19T08:57:54;9.00;;;2.70;;
3341;SDS011;1684;50.748;6.154;2023-09-19T09:00:25;15.53;;;2.60;;
3341;SDS011;1684;50.748;6.154;2023-09-19T09:02:54;7.23;;;3.57;;
3341;SDS011;1684;50.748;6.154;2023-09-19T09:05:23;10.00;;;2.60;;
3341;SDS011;1684;50.748;6.154;2023-09-19T09:07:52;7.37;;;2.53;;
3341;SDS011;1684;50.748;6.154;2023-09-19T09:10:23;7.77;;;3.03;;
3341;SDS011;1684;50.748;6.154;2023-09-19T09:12:53;7.03;;;2.20;;
3341;SDS011;1684;50.748;6.154;2023-09-19T09:15:22;12.50;;;2.83;;
3341;SDS011;1684;50.748;6.154;2023-09-19T09:17:51;5.40;;;2.40;;
3341;SDS011;1684;50.748;6.154;2023-09-19T09:20:20;11.10;;;2.80;;
3341;SDS011;1684;50.748;6.154;2023-09-19T09:22:52;6.90;;;2.40;;
3341;SDS011;1684;50.748;6.154;2023-09-19T09:25:21;5.60;;;2.10;;
3341;SDS011;1684;50.748;6.154;2023-09-19T09:28:01;9.37;;;3.03;;
3341;SDS011;1684;50.748;6.154;2023-09-19T09:30:33;8.93;;;3.00;;
3341;SDS011;1684;50.748;6.154;2023-09-19T09:33:12;10.93;;;3.30;;
3341;SDS011;1684;50.748;6.154;2023-09-19T09:35:48;5.87;;;2.10;;
3341;SDS011;1684;50.748;6.154;2023-09-19T09:38:19;7.37;;;2.93;;
3341;SDS011;1684;50.748;6.154;2023-09-19T09:40:47;8.50;;;2.80;;
3341;SDS011;1684;50.748;6.154;2023-09-19T09:43:28;6.10;;;2.10;;
3341;SDS011;1684;50.748;6.154;2023-09-19T09:46:06;9.77;;;2.67;;
3341;SDS011;1684;50.748;6.154;2023-09-19T09:48:56;6.10;;;2.43;;
3341;SDS011;1684;50.748;6.154;2023-09-19T09:51:39;8.27;;;3.00;;
3341;SDS011;1684;50.748;6.154;2023-09-19T09:54:11;9.30;;;3.40;;
3341;SDS011;1684;50.748;6.154;2023-09-19T09:56:53;12.53;;;3.30;;
3341;SDS011;1684;50.748;6.154;2023-09-19T09:59:45;12.50;;;3.20;;
3341;SDS011;1684;50.748;6.154;2023-09-19T10:02:14;7.43;;;2.50;;
3341;SDS011;1684;50.748;6.154;2023-09-19T10:04:51;9.73;;;3.50;;
3341;SDS011;1684;50.748;6.154;2023-09-19T10:07:26;5.50;;;3.00;;
3341;SDS011;1684;50.748;6.154;2023-09-19T10:09:59;8.13;;;3.07;;
3341;SDS011;1684;50.748;6.154;2023-09-19T10:12:36;8.23;;;3.50;;
3341;SDS011;1684;50.748;6.154;2023-09-19T10:15:08;8.70;;;2.67;;
3341;SDS011;1684;50.748;6.154;2023-09-19T10:17:43;14.10;;;2.60;;
3341;SDS011;1684;50.748;6.154;2023-09-19T10:20:12;7.77;;;3.20;;
3341;SDS011;1684;50.748;6.154;2023-09-19T10:22:59;5.97;;;2.27;;
3341;SDS011;1684;50.748;6.154;2023-09-19T10:25:29;13.97;;;3.00;;
3341;SDS011;1684;50.748;6.154;2023-09-19T10:27:57;5.77;;;2.67;;
3341;SDS011;1684;50.748;6.154;2023-09-19T10:30:32;4.50;;;1.90;;
3341;SDS011;1684;50.748;6.154;2023-09-19T10:33:02;6.07;;;3.20;;
3341;SDS011;1684;50.748;6.154;2023-09-19T10:35:32;9.40;;;2.70;;
3341;SDS011;1684;50.748;6.154;2023-09-19T10:38:00;13.23;;;2.57;;
3341;SDS011;1684;50.748;6.154;2023-09-19T10:40:29;9.23;;;2.20;;
3341;SDS011;1684;50.748;6.154;2023-09-19T10:43:00;6.03;;;2.30;;
3341;SDS011;1684;50.748;6.154;2023-09-19T10:45:29;6.23;;;2.30;;
3341;SDS011;1684;50.748;6.154;2023-09-19T10:48:00;4.77;;;1.60;;
3341;SDS011;1684;50.748;6.154;2023-09-19T10:50:31;6.30;;;2.40;;
3341;SDS011;1684;50.748;6.154;2023-09-19T10:53:00;8.67;;;2.10;;
3341;SDS011;1684;50.748;6.154;2023-09-19T10:55:34;11.60;;;2.93;;
3341;SDS011;1684;50.748;6.154;2023-09-19T10:58:03;6.10;;;2.77;;
3341;SDS011;1684;50.748;6.154;2023-09-19T11:00:50;11.30;;;2.80;;
3341;SDS011;1684;50.748;6.154;2023-09-19T11:03:21;8.27;;;3.30;;
3341;SDS011;1684;50.748;6.154;2023-09-19T11:06:03;9.63;;;2.00;;
3341;SDS011;1684;50.748;6.154;2023-09-19T11:08:52;4.20;;;1.50;;
3341;SDS011;1684;50.748;6.154;2023-09-19T11:11:39;9.93;;;3.10;;
3341;SDS011;1684;50.748;6.154;2023-09-19T11:14:13;5.37;;;2.50;;
3341;SDS011;1684;50.748;6.154;2023-09-19T11:19:34;15.70;;;2.57;;
3341;SDS011;1684;50.748;6.154;2023-09-19T11:22:23;7.40;;;2.60;;
3341;SDS011;1684;50.748;6.154;2023-09-19T11:24:52;8.20;;;2.33;;
3341;SDS011;1684;50.748;6.154;2023-09-19T11:27:29;6.10;;;2.57;;
3341;SDS011;1684;50.748;6.154;2023-09-19T11:38:16;8.97;;;2.40;;
3341;SDS011;1684;50.748;6.154;2023-09-19T11:40:45;6.50;;;2.13;;
3341;SDS011;1684;50.748;6.154;2023-09-19T11:43:28;6.87;;;2.67;;
3341;SDS011;1684;50.748;6.154;2023-09-19T11:46:04;5.73;;;2.13;;
3341;SDS011;1684;50.748;6.154;2023-09-19T11:48:32;11.77;;;2.30;;
3341;SDS011;1684;50.748;6.154;2023-09-19T11:51:13;6.13;;;2.50;;
3341;SDS011;1684;50.748;6.154;2023-09-19T11:53:55;13.40;;;2.97;;
3341;SDS011;1684;50.748;6.154;2023-09-19T11:56:24;7.47;;;2.13;;
3341;SDS011;1684;50.748;6.154;2023-09-19T11:58:54;6.63;;;1.83;;
3341;SDS011;1684;50.748;6.154;2023-09-19T12:01:26;9.00;;;2.00;;
3341;SDS011;1684;50.748;6.154;2023-09-19T12:03:57;6.47;;;2.57;;
3341;SDS011;1684;50.748;6.154;2023-09-19T12:06:26;8.40;;;3.13;;
3341;SDS011;1684;50.748;6.154;2023-09-19T12:08:57;9.07;;;2.13;;
3341;SDS011;1684;50.748;6.154;2023-09-19T12:11:27;5.80;;;2.93;;
3341;SDS011;1684;50.748;6.154;2023-09-19T12:13:56;5.07;;;1.93;;
3341;SDS011;1684;50.748;6.154;2023-09-19T12:16:27;4.53;;;1.70;;
3341;SDS011;1684;50.748;6.154;2023-09-19T12:21:57;8.13;;;2.73;;
3341;SDS011;1684;50.748;6.154;2023-09-19T12:24:32;4.73;;;2.13;;
3341;SDS011;1684;50.748;6.154;2023-09-19T12:27:06;5.43;;;1.90;;
3341;SDS011;1684;50.748;6.154;2023-09-19T12:29:42;5.03;;;1.43;;
3341;SDS011;1684;50.748;6.154;2023-09-19T12:32:10;3.90;;;1.23;;
3341;SDS011;1684;50.748;6.154;2023-09-19T12:34:40;6.87;;;1.73;;
3341;SDS011;1684;50.748;6.154;2023-09-19T12:37:10;7.00;;;2.33;;
3341;SDS011;1684;50.748;6.154;2023-09-19T12:39:40;7.60;;;2.43;;
3341;SDS011;1684;50.748;6.154;2023-09-19T12:42:10;5.20;;;1.80;;
3341;SDS011;1684;50.748;6.154;2023-09-19T12:44:41;9.17;;;1.93;;
3341;SDS011;1684;50.748;6.154;2023-09-19T12:47:11;4.77;;;1.80;;
3341;SDS011;1684;50.748;6.154;2023-09-19T12:52:33;5.60;;;2.00;;
3341;SDS011;1684;50.748;6.154;2023-09-19T12:55:04;5.73;;;2.10;;
3341;SDS011;1684;50.748;6.154;2023-09-19T12:57:33;6.97;;;2.07;;
3341;SDS011;1684;50.748;6.154;2023-09-19T13:00:02;11.47;;;1.83;;
3341;SDS011;1684;50.748;6.154;2023-09-19T13:02:32;5.70;;;1.40;;
3341;SDS011;1684;50.748;6.154;2023-09-19T13:05:00;5.57;;;1.33;;
3341;SDS011;1684;50.748;6.154;2023-09-19T13:07:39;3.60;;;1.67;;
3341;SDS011;1684;50.748;6.154;2023-09-19T13:10:11;7.10;;;1.83;;
3341;SDS011;1684;50.748;6.154;2023-09-19T13:12:42;7.20;;;2.50;;
3341;SDS011;1684;50.748;6.154;2023-09-19T13:15:13;4.30;;;1.50;;
3341;SDS011;1684;50.748;6.154;2023-09-19T13:17:46;6.03;;;1.37;;
3341;SDS011;1684;50.748;6.154;2023-09-19T13:20:22;3.30;;;1.30;;
3341;SDS011;1684;50.748;6.154;2023-09-19T13:22:55;3.13;;;1.53;;
3341;SDS011;1684;50.748;6.154;2023-09-19T13:25:28;10.30;;;2.60;;
3341;SDS011;1684;50.748;6.154;2023-09-19T13:27:58;4.50;;;2.17;;
3341;SDS011;1684;50.748;6.154;2023-09-19T13:30:30;13.87;;;2.57;;
3341;SDS011;1684;50.748;6.154;2023-09-19T13:33:05;5.43;;;1.10;;
3341;SDS011;1684;50.748;6.154;2023-09-19T13:35:34;3.43;;;1.60;;
3341;SDS011;1684;50.748;6.154;2023-09-19T13:38:03;3.00;;;1.60;;
3341;SDS011;1684;50.748;6.154;2023-09-19T13:40:34;5.17;;;1.37;;
3341;SDS011;1684;50.748;6.154;2023-09-19T13:43:03;2.43;;;0.90;;
3341;SDS011;1684;50.748;6.154;2023-09-19T13:45:33;3.80;;;1.20;;
3341;SDS011;1684;50.748;6.154;2023-09-19T13:48:01;5.40;;;1.37;;
3341;SDS011;1684;50.748;6.154;2023-09-19T13:50:29;3.90;;;1.60;;
3341;SDS011;1684;50.748;6.154;2023-09-19T13:52:58;7.07;;;1.17;;
3341;SDS011;1684;50.748;6.154;2023-09-19T13:55:27;4.93;;;1.33;;
3341;SDS011;1684;50.748;6.154;2023-09-19T13:57:56;8.77;;;2.20;;
3341;SDS011;1684;50.748;6.154;2023-09-19T14:00:25;12.00;;;1.93;;
3341;SDS011;1684;50.748;6.154;2023-09-19T14:02:54;4.83;;;1.30;;
3341;SDS011;1684;50.748;6.154;2023-09-19T14:05:22;6.23;;;1.40;;
3341;SDS011;1684;50.748;6.154;2023-09-19T14:07:54;6.50;;;2.17;;
3341;SDS011;1684;50.748;6.154;2023-09-19T14:10:23;6.57;;;1.40;;
3341;SDS011;1684;50.748;6.154;2023-09-19T14:12:52;4.37;;;1.20;;
3341;SDS011;1684;50.748;6.154;2023-09-19T14:15:21;5.77;;;1.80;;
3341;SDS011;1684;50.748;6.154;2023-09-19T14:17:56;8.03;;;1.67;;
3341;SDS011;1684;50.748;6.154;2023-09-19T14:20:25;4.00;;;1.33;;
3341;SDS011;1684;50.748;6.154;2023-09-19T14:22:54;4.40;;;1.30;;
3341;SDS011;1684;50.748;6.154;2023-09-19T14:25:22;3.93;;;1.10;;
3341;SDS011;1684;50.748;6.154;2023-09-19T14:27:51;4.30;;;1.40;;
3341;SDS011;1684;50.748;6.154;2023-09-19T14:30:23;3.77;;;1.37;;
3341;SDS011;1684;50.748;6.154;2023-09-19T14:32:51;5.50;;;2.07;;
3341;SDS011;1684;50.748;6.154;2023-09-19T14:35:19;4.17;;;1.77;;
3341;SDS011;1684;50.748;6.154;2023-09-19T14:37:49;4.10;;;1.60;;
3341;SDS011;1684;50.748;6.154;2023-09-19T14:40:17;5.27;;;1.67;;
3341;SDS011;1684;50.748;6.154;2023-09-19T14:42:46;6.63;;;2.90;;
3341;SDS011;1684;50.748;6.154;2023-09-19T14:45:18;2.93;;;1.30;;
3341;SDS011;1684;50.748;6.154;2023-09-19T14:47:48;4.70;;;1.03;;
3341;SDS011;1684;50.748;6.154;2023-09-19T14:50:18;3.70;;;1.43;;
3341;SDS011;1684;50.748;6.154;2023-09-19T14:52:48;4.07;;;1.27;;
3341;SDS011;1684;50.748;6.154;2023-09-19T14:55:18;3.80;;;1.20;;
3341;SDS011;1684;50.748;6.154;2023-09-19T14:57:48;4.07;;;1.30;;
3341;SDS011;1684;50.748;6.154;2023-09-19T15:00:17;4.23;;;1.40;;
3341;SDS011;1684;50.748;6.154;2023-09-19T15:02:49;3.00;;;1.30;;
3341;SDS011;1684;50.748;6.154;2023-09-19T15:05:18;3.80;;;1.33;;
3341;SDS011;1684;50.748;6.154;2023-09-19T15:07:46;2.80;;;1.37;;
3341;SDS011;1684;50.748;6.154;2023-09-19T15:10:15;5.50;;;1.50;;
3341;SDS011;1684;50.748;6.154;2023-09-19T15:12:45;3.47;;;1.47;;
3341;SDS011;1684;50.748;6.154;2023-09-19T15:15:14;3.60;;;1.33;;
3341;SDS011;1684;50.748;6.154;2023-09-19T15:17:43;5.50;;;1.20;;
3341;SDS011;1684;50.748;6.154;2023-09-19T15:20:15;3.30;;;1.47;;
3341;SDS011;1684;50.748;6.154;2023-09-19T15:22:44;8.53;;;1.70;;
3341;SDS011;1684;50.748;6.154;2023-09-19T15:25:12;8.17;;;1.27;;
3341;SDS011;1684;50.748;6.154;2023-09-19T15:27:41;8.87;;;2.87;;
3341;SDS011;1684;50.748;6.154;2023-09-19T15:30:10;5.00;;;1.53;;
3341;SDS011;1684;50.748;6.154;2023-09-19T15:32:41;4.87;;;1.60;;
3341;SDS011;1684;50.748;6.154;2023-09-19T15:35:09;4.17;;;1.40;;
3341;SDS011;1684;50.748;6.154;2023-09-19T15:37:41;4.33;;;1.67;;
3341;SDS011;1684;50.748;6.154;2023-09-19T15:40:10;4.00;;;1.50;;
3341;SDS011;1684;50.748;6.154;2023-09-19T15:42:40;7.37;;;1.47;;
3341;SDS011;1684;50.748;6.154;2023-09-19T15:45:08;6.13;;;1.33;;
3341;SDS011;1684;50.748;6.154;2023-09-19T15:47:37;3.50;;;1.70;;
3341;SDS011;1684;50.748;6.154;2023-09-19T15:50:06;5.73;;;1.60;;
3341;SDS011;1684;50.748;6.154;2023-09-19T15:52:35;5.67;;;1.70;;
3341;SDS011;1684;50.748;6.154;2023-09-19T15:55:06;7.30;;;1.70;;